createdAt,value
2022-12-05T00:01:42.698Z,101231.97
2022-12-05T00:04:13.019Z,101221.22
2022-12-05T00:06:43.540Z,101227.38
2022-12-05T00:09:13.204Z,101221.97
2022-12-05T00:11:42.961Z,101231.84
2022-12-05T00:14:11.425Z,101224.56
2022-12-05T00:16:41.025Z,101231.72
2022-12-05T00:19:11.619Z,101234.44
2022-12-05T00:21:39.718Z,101229.97
2022-12-05T00:24:12.592Z,101238.03
2022-12-05T00:26:40.348Z,101233.66
2022-12-05T00:29:08.132Z,101238.09
2022-12-05T00:31:36.456Z,101237.31
2022-12-05T00:34:04.759Z,101242.66
2022-12-05T00:36:34.311Z,101236.44
2022-12-05T00:39:04.721Z,101236.50
2022-12-05T00:41:33.968Z,101233.78
2022-12-05T00:44:03.261Z,101234.69
2022-12-05T00:46:33.034Z,101235.63
2022-12-05T00:49:01.819Z,101232.91
2022-12-05T00:51:31.973Z,101233.00
2022-12-05T00:54:02.244Z,101228.41
2022-12-05T00:56:31.229Z,101230.22
2022-12-05T00:59:01.847Z,101226.63
2022-12-05T01:01:32.700Z,101231.09
2022-12-05T01:04:02.917Z,101216.72
2022-12-05T01:06:31.059Z,101222.09
2022-12-05T01:08:59.236Z,101223.00
2022-12-05T01:11:28.252Z,101220.22
2022-12-05T01:13:56.632Z,101221.09
2022-12-05T01:16:28.887Z,101225.44
2022-12-05T01:18:57.832Z,101222.03
2022-12-05T01:21:25.947Z,101223.81
2022-12-05T01:23:54.316Z,101224.69
2022-12-05T01:26:23.206Z,101229.19
2022-12-05T01:28:51.659Z,101224.56
2022-12-05T01:31:23.787Z,101228.16
2022-12-05T01:33:57.095Z,101231.03
2022-12-05T01:36:26.054Z,101233.72
2022-12-05T01:38:54.235Z,101235.50
2022-12-05T01:41:24.703Z,101242.66
2022-12-05T01:44:01.493Z,101235.31
2022-12-05T01:46:31.524Z,101239.13
2022-12-05T01:49:04.557Z,101235.38
2022-12-05T01:51:33.802Z,101241.03
2022-12-05T01:54:02.834Z,101243.81
2022-12-05T01:56:33.583Z,101240.00
2022-12-05T01:59:03.317Z,101240.91
2022-12-05T02:01:31.369Z,101242.72
2022-12-05T02:04:04.342Z,101246.19
2022-12-05T02:06:33.985Z,101239.19
2022-12-05T02:09:02.117Z,101245.50
2022-12-05T02:11:32.742Z,101243.50
2022-12-05T02:14:17.442Z,101253.34
2022-12-05T02:16:57.173Z,101256.16
2022-12-05T02:19:57.953Z,101246.13
2022-12-05T02:22:55.975Z,101243.41
2022-12-05T02:25:51.212Z,101256.06
2022-12-05T02:28:37.854Z,101251.53
2022-12-05T02:31:11.261Z,101247.00
2022-12-05T02:33:45.274Z,101243.28
2022-12-05T02:36:19.122Z,101244.16
2022-12-05T02:38:55.157Z,101246.94
2022-12-05T02:41:28.475Z,101245.09
2022-12-05T02:44:01.771Z,101240.59
2022-12-05T02:46:34.005Z,101244.16
2022-12-05T02:49:05.333Z,101243.34
2022-12-05T02:51:39.237Z,101239.69
2022-12-05T02:54:13.743Z,101239.69
2022-12-05T02:56:44.793Z,101241.59
2022-12-05T02:59:12.628Z,101244.31
2022-12-05T03:01:45.053Z,101252.41
2022-12-05T03:04:14.931Z,101255.19
2022-12-05T03:06:46.839Z,101261.56
2022-12-05T03:09:20.642Z,101261.47
2022-12-05T03:11:51.965Z,101248.91
2022-12-05T03:14:24.824Z,101262.34
2022-12-05T03:16:57.897Z,101257.00
2022-12-05T03:19:28.514Z,101265.03
2022-12-05T03:22:02.205Z,101268.56
2022-12-05T03:24:31.648Z,101259.56
2022-12-05T03:27:09.091Z,101263.97
2022-12-05T03:29:44.154Z,101265.78
2022-12-05T03:32:22.742Z,101269.31
2022-12-05T03:35:03.861Z,101272.88
2022-12-05T03:37:41.008Z,101273.75
2022-12-05T03:40:15.801Z,101266.59
2022-12-05T03:42:52.598Z,101266.44
2022-12-05T03:45:28.931Z,101257.53
2022-12-05T03:48:06.458Z,101263.78
2022-12-05T03:50:38.523Z,101258.50
2022-12-05T03:53:19.778Z,101260.31
2022-12-05T03:55:55.149Z,101265.53
2022-12-05T03:58:29.122Z,101260.06
2022-12-05T04:00:59.488Z,101263.66
2022-12-05T04:03:39.599Z,101271.69
2022-12-05T04:06:14.955Z,101268.09
2022-12-05T04:08:48.612Z,101270.81
2022-12-05T04:11:19.701Z,101273.53
2022-12-05T04:13:55.563Z,101266.28
2022-12-05T04:16:43.745Z,101274.41
2022-12-05T04:19:19.330Z,101273.44
2022-12-05T04:21:50.046Z,101277.03
2022-12-05T04:24:39.324Z,101272.50
2022-12-05T04:27:23.634Z,101267.97
2022-12-05T04:30:00.339Z,101276.09
2022-12-05T04:32:39.501Z,101271.44
2022-12-05T04:35:15.789Z,101287.59
2022-12-05T04:37:46.857Z,101291.19
2022-12-05T04:40:21.161Z,101290.16
2022-12-05T04:42:52.489Z,101292.88
2022-12-05T04:45:23.696Z,101290.16
2022-12-05T04:47:55.475Z,101296.47
2022-12-05T04:50:28.222Z,101291.81
2022-12-05T04:53:01.926Z,101292.88
2022-12-05T04:55:32.687Z,101285.63
2022-12-05T04:58:07.735Z,101295.41
2022-12-05T05:00:43.302Z,101293.69
2022-12-05T05:03:18.009Z,101290.09
2022-12-05T05:05:50.165Z,101298.28
2022-12-05T05:08:19.835Z,101293.09
2022-12-05T05:10:56.427Z,101293.31
2022-12-05T05:13:25.026Z,101296.41
2022-12-05T05:15:53.204Z,101292.13
2022-12-05T05:18:21.874Z,101293.31
2022-12-05T05:20:51.408Z,101303.31
2022-12-05T05:23:19.285Z,101290.19
2022-12-05T05:25:47.087Z,101303.78
2022-12-05T05:28:14.956Z,101300.34
2022-12-05T05:30:45.259Z,101301.34
2022-12-05T05:33:13.415Z,101301.41
2022-12-05T05:35:41.197Z,101296.19
2022-12-05T05:38:10.424Z,101310.63
2022-12-05T05:40:38.423Z,101305.34
2022-12-05T05:43:06.411Z,101313.53
2022-12-05T05:45:34.313Z,101312.75
2022-12-05T05:48:02.555Z,101311.88
2022-12-05T05:50:31.049Z,101315.56
2022-12-05T05:52:59.427Z,101315.56
2022-12-05T05:55:28.960Z,101317.41
2022-12-05T05:57:56.842Z,101322.81
2022-12-05T06:00:24.977Z,101315.56
2022-12-05T06:02:52.980Z,101321.03
2022-12-05T06:05:20.928Z,101323.81
2022-12-05T06:07:48.934Z,101321.09
2022-12-05T06:10:17.148Z,101319.28
2022-12-05T06:12:46.899Z,101326.50
2022-12-05T06:15:14.672Z,101321.09
2022-12-05T06:17:42.757Z,101323.81
2022-12-05T06:20:11.418Z,101322.00
2022-12-05T06:22:39.427Z,101326.50
2022-12-05T06:25:08.988Z,101330.03
2022-12-05T06:27:36.866Z,101327.38
2022-12-05T06:30:07.589Z,101330.97
2022-12-05T06:32:35.606Z,101332.88
2022-12-05T06:35:09.066Z,101331.91
2022-12-05T06:37:38.406Z,101339.16
2022-12-05T06:40:07.667Z,101331.06
2022-12-05T06:42:35.498Z,101334.72
2022-12-05T06:45:03.745Z,101342.72
2022-12-05T06:47:33.377Z,101340.00
2022-12-05T06:50:01.609Z,101342.81
2022-12-05T06:52:29.513Z,101349.09
2022-12-05T06:54:59.672Z,101350.03
2022-12-05T06:57:29.121Z,101356.31
2022-12-05T07:00:16.978Z,101357.31
2022-12-05T07:02:45.256Z,101353.81
2022-12-05T07:05:13.490Z,101354.75
2022-12-05T07:07:41.421Z,101365.56
2022-12-05T07:10:09.826Z,101355.69
2022-12-05T07:12:37.812Z,101365.66
2022-12-05T07:15:06.307Z,101358.56
2022-12-05T07:17:37.565Z,101369.28
2022-12-05T07:20:08.135Z,101377.47
2022-12-05T07:22:37.360Z,101376.63
2022-12-05T07:25:06.071Z,101384.81
2022-12-05T07:27:34.432Z,101385.75
2022-12-05T07:30:02.573Z,101384.00
2022-12-05T07:32:33.313Z,101392.97
2022-12-05T07:35:01.184Z,101388.53
2022-12-05T07:37:30.964Z,101395.66
2022-12-05T07:39:58.977Z,101391.25
2022-12-05T07:42:26.973Z,101391.25
2022-12-05T07:44:56.101Z,101394.81
2022-12-05T07:47:23.979Z,101398.38
2022-12-05T07:49:51.773Z,101398.38
2022-12-05T07:52:20.990Z,101395.66
2022-12-05T07:54:50.433Z,101402.81
2022-12-05T07:57:18.229Z,101404.66
2022-12-05T07:59:49.161Z,101403.72
2022-12-05T08:02:17.221Z,101401.06
2022-12-05T08:04:45.977Z,101407.34
2022-12-05T08:07:14.280Z,101407.44
2022-12-05T08:09:42.736Z,101411.88
2022-12-05T08:12:13.656Z,101411.81
2022-12-05T08:14:41.777Z,101416.31
2022-12-05T08:17:10.622Z,101417.28
2022-12-05T08:19:39.211Z,101419.13
2022-12-05T08:22:07.028Z,101426.25
2022-12-05T08:24:34.865Z,101425.38
2022-12-05T08:27:02.670Z,101425.38
2022-12-05T08:29:32.107Z,101434.34
2022-12-05T08:31:59.932Z,101443.44
2022-12-05T08:34:27.776Z,101446.13
2022-12-05T08:36:55.583Z,101447.06
2022-12-05T08:39:23.463Z,101444.38
2022-12-05T08:41:51.385Z,101449.75
2022-12-05T08:44:19.275Z,101443.47
2022-12-05T08:46:50.623Z,101443.47
2022-12-05T08:49:18.850Z,101451.66
2022-12-05T08:51:49.274Z,101455.22
2022-12-05T08:54:18.655Z,101458.81
2022-12-05T08:56:46.702Z,101453.41
2022-12-05T08:59:15.026Z,101455.22
2022-12-05T09:01:43.920Z,101456.09
2022-12-05T09:04:14.414Z,101456.03
2022-12-05T09:06:42.868Z,101457.88
2022-12-05T09:09:12.659Z,101457.78
2022-12-05T09:11:46.692Z,101463.16
2022-12-05T09:14:14.993Z,101462.22
2022-12-05T09:16:45.665Z,101462.22
2022-12-05T09:19:17.394Z,101469.41
2022-12-05T09:21:45.868Z,101463.16
2022-12-05T09:24:15.321Z,101473.03
2022-12-05T09:26:43.808Z,101473.91
2022-12-05T09:29:17.725Z,101473.91
2022-12-05T09:31:47.443Z,101472.16
2022-12-05T09:34:18.305Z,101473.03
2022-12-05T09:36:55.600Z,101478.53
2022-12-05T09:39:26.418Z,101474.94
2022-12-05T09:42:19.139Z,101477.50
2022-12-05T09:45:08.314Z,101472.25
2022-12-05T09:47:45.240Z,101477.66
2022-12-05T09:50:20.020Z,101473.13
2022-12-05T09:52:59.668Z,101477.56
2022-12-05T09:55:41.715Z,101479.38
2022-12-05T09:58:20.281Z,101473.97
2022-12-05T10:00:50.943Z,101470.44
2022-12-05T10:03:27.263Z,101471.22
2022-12-05T10:06:09.194Z,101472.97
2022-12-05T10:08:50.776Z,101472.03
2022-12-05T10:11:24.490Z,101473.78
2022-12-05T10:14:01.492Z,101470.97
2022-12-05T10:16:34.171Z,101467.31
2022-12-05T10:19:07.490Z,101463.88
2022-12-05T10:21:42.172Z,101472.63
2022-12-05T10:24:16.207Z,101464.47
2022-12-05T10:26:46.162Z,101468.94
2022-12-05T10:29:23.475Z,101473.34
2022-12-05T10:31:55.557Z,101468.81
2022-12-05T10:34:31.127Z,101472.31
2022-12-05T10:37:10.150Z,101472.19
2022-12-05T10:39:38.613Z,101467.72
2022-12-05T10:42:12.755Z,101472.06
2022-12-05T10:44:41.267Z,101466.66
2022-12-05T10:47:10.416Z,101469.25
2022-12-05T10:49:39.872Z,101461.97
2022-12-05T10:52:10.907Z,101478.13
2022-12-05T10:54:46.208Z,101473.59
2022-12-05T10:57:23.037Z,101472.78
2022-12-05T10:59:51.223Z,101476.44
2022-12-05T11:02:26.078Z,101475.44
2022-12-05T11:04:54.526Z,101480.00
2022-12-05T11:07:31.425Z,101470.03
2022-12-05T11:10:01.178Z,101471.91
2022-12-05T11:12:31.525Z,101476.44
2022-12-05T11:15:02.905Z,101471.03
2022-12-05T11:17:37.192Z,101479.06
2022-12-05T11:20:37.293Z,101471.91
2022-12-05T11:23:23.202Z,101469.19
2022-12-05T11:25:51.197Z,101473.78
2022-12-05T11:28:32.077Z,101479.00
2022-12-05T11:31:02.633Z,101468.25
2022-12-05T11:33:32.387Z,101470.03
2022-12-05T11:36:14.485Z,101468.19
2022-12-05T11:38:44.128Z,101473.59
2022-12-05T11:41:32.431Z,101470.91
2022-12-05T11:44:16.025Z,101470.97
2022-12-05T11:47:00.167Z,101470.97
2022-12-05T11:49:46.022Z,101467.44
2022-12-05T11:52:26.113Z,101468.31
2022-12-05T11:55:11.608Z,101464.75
2022-12-05T11:57:58.229Z,101462.91
2022-12-05T12:00:29.780Z,101462.97
2022-12-05T12:03:19.371Z,101460.22
2022-12-05T12:06:02.139Z,101457.53
2022-12-05T12:08:31.461Z,101454.09
2022-12-05T12:11:14.704Z,101451.16
2022-12-05T12:13:58.423Z,101454.75
2022-12-05T12:16:36.915Z,101459.16
2022-12-05T12:19:26.967Z,101461.78
2022-12-05T12:22:08.267Z,101463.53
2022-12-05T12:24:52.924Z,101461.78
2022-12-05T12:27:36.560Z,101461.63
2022-12-05T12:30:11.686Z,101468.78
2022-12-05T12:32:53.245Z,101465.97
2022-12-05T12:35:29.627Z,101465.97
2022-12-05T12:38:18.242Z,101456.03
2022-12-05T12:40:51.451Z,101467.72
2022-12-05T12:43:53.574Z,101453.25
2022-12-05T12:46:37.076Z,101463.22
2022-12-05T12:49:19.832Z,101460.50
2022-12-05T12:52:02.341Z,101456.94
2022-12-05T12:55:03.838Z,101454.22
2022-12-05T12:58:00.969Z,101458.66
2022-12-05T13:00:44.759Z,101454.13
2022-12-05T13:03:18.326Z,101455.09
2022-12-05T13:05:51.319Z,101450.47
2022-12-05T13:08:29.110Z,101458.66
2022-12-05T13:11:01.485Z,101447.84
2022-12-05T13:13:34.484Z,101448.88
2022-12-05T13:16:07.997Z,101458.66
2022-12-05T13:18:36.432Z,101454.13
2022-12-05T13:21:08.045Z,101450.47
2022-12-05T13:23:42.156Z,101447.84
2022-12-05T13:26:12.514Z,101445.13
2022-12-05T13:28:48.610Z,101453.19
2022-12-05T13:31:19.351Z,101442.38
2022-12-05T13:33:49.614Z,101441.50
2022-12-05T13:36:38.450Z,101443.31
2022-12-05T13:39:25.179Z,101449.75
2022-12-05T13:42:15.319Z,101457.94
2022-12-05T13:44:48.053Z,101454.41
2022-12-05T13:47:31.093Z,101463.41
2022-12-05T13:50:05.372Z,101460.81
2022-12-05T13:52:45.883Z,101467.03
2022-12-05T13:55:29.520Z,101473.31
2022-12-05T13:58:01.769Z,101470.78
2022-12-05T14:00:37.291Z,101477.03
2022-12-05T14:03:16.496Z,101469.03
2022-12-05T14:05:46.821Z,101471.78
2022-12-05T14:08:57.119Z,101466.66
2022-12-05T14:11:25.177Z,101480.94
2022-12-05T14:13:54.166Z,101476.44
2022-12-05T14:16:47.695Z,101477.47
2022-12-05T14:19:34.687Z,101476.59
2022-12-05T14:22:15.617Z,101473.94
2022-12-05T14:24:53.412Z,101475.75
2022-12-05T14:27:30.959Z,101475.81
2022-12-05T14:30:04.370Z,101475.00
2022-12-05T14:32:35.310Z,101479.63
2022-12-05T14:35:12.631Z,101479.63
2022-12-05T14:37:49.708Z,101482.44
2022-12-05T14:40:25.222Z,101474.34
2022-12-05T14:42:55.530Z,101475.34
2022-12-05T14:45:29.244Z,101479.03
2022-12-05T14:47:59.896Z,101488.25
2022-12-05T14:50:48.163Z,101488.25
2022-12-05T14:53:24.006Z,101487.41
2022-12-05T14:55:55.355Z,101489.34
2022-12-05T14:58:32.618Z,101492.97
2022-12-05T15:01:02.584Z,101496.72
2022-12-05T15:03:34.712Z,101503.06
2022-12-05T15:06:07.628Z,101502.19
2022-12-05T15:08:39.748Z,101510.31
2022-12-05T15:11:07.765Z,101510.59
2022-12-05T15:13:37.168Z,101513.31
2022-12-05T15:16:09.685Z,101508.72
2022-12-05T15:18:43.664Z,101507.03
2022-12-05T15:21:23.593Z,101513.31
2022-12-05T15:23:59.258Z,101514.19
2022-12-05T15:26:47.701Z,101505.47
2022-12-05T15:29:25.224Z,101510.88
2022-12-05T15:31:55.802Z,101514.50
2022-12-05T15:34:29.088Z,101515.44
2022-12-05T15:37:04.211Z,101511.00
2022-12-05T15:39:52.582Z,101513.06
2022-12-05T15:42:29.846Z,101517.47
2022-12-05T15:45:17.167Z,101514.88
2022-12-05T15:47:47.408Z,101522.03
2022-12-05T15:50:16.967Z,101518.63
2022-12-05T15:52:51.317Z,101523.03
2022-12-05T15:55:26.367Z,101522.31
2022-12-05T15:57:59.259Z,101529.56
2022-12-05T16:00:29.618Z,101530.50
2022-12-05T16:03:04.825Z,101528.75
2022-12-05T16:05:36.873Z,101530.50
2022-12-05T16:08:07.132Z,101526.94
2022-12-05T16:10:45.734Z,101526.09
2022-12-05T16:13:18.292Z,101528.81
2022-12-05T16:15:52.869Z,101542.38
2022-12-05T16:18:26.748Z,101535.97
2022-12-05T16:20:57.578Z,101537.78
2022-12-05T16:23:30.541Z,101534.19
2022-12-05T16:26:19.770Z,101535.16
2022-12-05T16:28:58.533Z,101538.75
2022-12-05T16:31:26.603Z,101543.31
2022-12-05T16:34:05.162Z,101547.69
2022-12-05T16:36:33.773Z,101549.66
2022-12-05T16:39:08.291Z,101547.84
2022-12-05T16:41:37.996Z,101553.28
2022-12-05T16:44:15.175Z,101556.00
2022-12-05T16:46:46.931Z,101553.28
2022-12-05T16:49:31.452Z,101559.50
2022-12-05T16:52:01.587Z,101554.22
2022-12-05T16:54:31.135Z,101561.38
2022-12-05T16:57:06.856Z,101560.50
2022-12-05T16:59:39.277Z,101559.56
2022-12-05T17:02:13.363Z,101555.94
2022-12-05T17:04:41.577Z,101556.00
2022-12-05T17:07:09.729Z,101558.63
2022-12-05T17:13:48.556Z,101561.50
2022-12-05T17:16:17.334Z,101559.69
2022-12-05T17:18:45.385Z,101556.03
2022-12-05T17:21:16.926Z,101561.38
2022-12-05T17:23:47.920Z,101556.03
2022-12-05T17:26:18.021Z,101556.94
2022-12-05T17:28:47.236Z,101558.69
2022-12-05T17:31:17.367Z,101555.09
2022-12-05T17:33:45.913Z,101554.16
2022-12-05T17:36:14.775Z,101558.69
2022-12-05T17:38:42.879Z,101563.16
2022-12-05T17:41:16.659Z,101564.84
2022-12-05T17:43:45.586Z,101564.03
2022-12-05T17:46:17.433Z,101563.97
2022-12-05T17:48:45.461Z,101567.59
2022-12-05T17:51:14.656Z,101563.97
2022-12-05T17:53:43.061Z,101561.28
2022-12-05T17:56:10.962Z,101563.97
2022-12-05T17:58:46.243Z,101569.38
2022-12-05T18:01:19.478Z,101565.75
2022-12-05T18:03:47.701Z,101565.75
2022-12-05T18:06:16.840Z,101572.88
2022-12-05T18:08:45.490Z,101571.97
2022-12-05T18:11:14.248Z,101568.44
2022-12-05T18:13:42.721Z,101564.84
2022-12-05T18:16:10.924Z,101570.25
2022-12-05T18:18:41.076Z,101575.56
2022-12-05T18:21:10.565Z,101575.66
2022-12-05T18:23:40.147Z,101575.66
2022-12-05T18:26:09.940Z,101581.97
2022-12-05T18:28:39.324Z,101582.03
2022-12-05T18:31:09.281Z,101580.22
2022-12-05T18:33:40.837Z,101581.16
2022-12-05T18:36:11.465Z,101576.69
2022-12-05T18:38:40.703Z,101582.16
2022-12-05T18:41:08.586Z,101583.97
2022-12-05T18:43:37.136Z,101584.84
2022-12-05T18:46:06.921Z,101593.88
2022-12-05T18:48:42.590Z,101585.88
2022-12-05T18:51:16.393Z,101586.75
2022-12-05T18:53:51.481Z,101595.78
2022-12-05T18:56:23.115Z,101593.09
2022-12-05T18:58:55.648Z,101598.47
2022-12-05T19:01:24.216Z,101597.66
2022-12-05T19:03:52.411Z,101594.06
2022-12-05T19:06:23.432Z,101604.81
2022-12-05T19:08:55.186Z,101597.66
2022-12-05T19:11:23.857Z,101597.69
2022-12-05T19:13:55.910Z,101601.28
2022-12-05T19:16:23.941Z,101604.97
2022-12-05T19:18:55.131Z,101604.91
2022-12-05T19:21:25.020Z,101612.13
2022-12-05T19:23:53.672Z,101608.53
2022-12-05T19:26:23.301Z,101605.84
2022-12-05T19:28:51.868Z,101610.44
2022-12-05T19:31:21.502Z,101619.38
2022-12-05T19:33:52.685Z,101617.66
2022-12-05T19:36:22.698Z,101625.75
2022-12-05T19:38:54.366Z,101620.41
2022-12-05T19:41:24.333Z,101628.50
2022-12-05T19:43:53.002Z,101624.03
2022-12-05T19:46:24.863Z,101624.09
2022-12-05T19:48:53.476Z,101626.78
2022-12-05T19:51:21.788Z,101625.91
2022-12-05T19:53:52.027Z,101619.63
2022-12-05T19:56:22.008Z,101623.25
2022-12-05T19:58:50.823Z,101614.28
2022-12-05T20:01:23.779Z,101618.81
2022-12-05T20:03:52.089Z,101608.88
2022-12-05T20:06:21.360Z,101615.47
2022-12-05T20:08:52.532Z,101610.91
2022-12-05T20:11:24.658Z,101610.84
2022-12-05T20:13:59.218Z,101607.38
2022-12-05T20:16:33.793Z,101606.50
2022-12-05T20:19:02.899Z,101609.25
2022-12-05T20:21:33.120Z,101615.47
2022-12-05T20:24:04.907Z,101615.47
2022-12-05T20:26:36.117Z,101614.63
2022-12-05T20:29:07.025Z,101611.88
2022-12-05T20:31:37.329Z,101607.38
2022-12-05T20:34:06.834Z,101611.00
2022-12-05T20:36:36.092Z,101612.78
2022-12-05T20:39:07.582Z,101619.91
2022-12-05T20:41:36.760Z,101618.22
2022-12-05T20:44:07.361Z,101615.47
2022-12-05T20:46:36.909Z,101616.34
2022-12-05T20:49:08.462Z,101614.59
2022-12-05T20:51:36.534Z,101612.81
2022-12-05T20:54:07.460Z,101610.03
2022-12-05T20:56:36.354Z,101613.66
2022-12-05T20:59:11.694Z,101616.25
2022-12-05T21:02:33.283Z,101618.09
2022-12-05T21:05:03.179Z,101603.94
2022-12-05T21:07:36.514Z,101611.84
2022-12-05T21:10:08.947Z,101601.03
2022-12-05T21:12:45.516Z,101599.28
2022-12-05T21:15:15.271Z,101606.44
2022-12-05T21:17:45.850Z,101595.66
2022-12-05T21:20:18.176Z,101601.88
2022-12-05T21:22:46.904Z,101596.53
2022-12-05T21:25:34.040Z,101596.38
2022-12-05T21:28:05.172Z,101600.94
2022-12-05T21:30:37.255Z,101590.97
2022-12-05T21:33:06.243Z,101602.63
2022-12-05T21:35:34.195Z,101593.59
2022-12-05T21:38:02.542Z,101599.88
2022-12-05T21:40:31.785Z,101593.53
2022-12-05T21:42:59.644Z,101596.22
2022-12-05T21:45:27.597Z,101595.34
2022-12-05T21:48:15.344Z,101591.72
2022-12-05T21:50:48.541Z,101594.53
2022-12-05T21:53:16.776Z,101602.63
2022-12-05T21:55:46.306Z,101592.59
2022-12-05T21:58:15.305Z,101595.31
2022-12-05T22:00:43.930Z,101595.25
2022-12-05T22:03:15.246Z,101597.06
2022-12-05T22:05:44.470Z,101596.22
2022-12-05T22:08:13.073Z,101599.75
2022-12-05T22:10:41.214Z,101606.91
2022-12-05T22:13:10.647Z,101604.22
2022-12-05T22:15:39.102Z,101600.66
2022-12-05T22:18:07.280Z,101592.56
2022-12-05T22:20:35.255Z,101594.31
2022-12-05T22:23:03.278Z,101590.72
2022-12-05T22:25:33.169Z,101597.91
2022-12-05T22:28:05.489Z,101604.16
2022-12-05T22:30:37.936Z,101599.72
2022-12-05T22:33:05.946Z,101597.91
2022-12-05T22:35:36.006Z,101595.09
2022-12-05T22:38:04.876Z,101602.34
2022-12-05T22:40:33.011Z,101590.69
2022-12-05T22:43:01.033Z,101584.41
2022-12-05T22:45:47.020Z,101589.72
2022-12-05T22:48:16.330Z,101594.31
2022-12-05T22:50:48.636Z,101591.47
2022-12-05T22:53:16.695Z,101596.13
2022-12-05T22:55:44.618Z,101591.63
2022-12-05T22:58:12.665Z,101588.03
2022-12-05T23:01:33.458Z,101585.34
2022-12-05T23:04:13.568Z,101583.63
2022-12-05T23:07:26.834Z,101579.00
2022-12-05T23:17:06.432Z,101578.19
2022-12-05T23:20:34.769Z,101576.41
2022-12-05T23:23:27.212Z,101569.25
2022-12-05T23:26:44.654Z,101574.59
2022-12-05T23:29:57.461Z,101574.66
2022-12-05T23:32:56.284Z,101573.81
2022-12-05T23:35:34.586Z,101564.75
2022-12-05T23:38:09.664Z,101563.75
2022-12-05T23:40:46.752Z,101559.28
2022-12-05T23:43:19.125Z,101562.00
2022-12-05T23:45:47.833Z,101563.75
2022-12-05T23:48:15.629Z,101561.06
2022-12-05T23:50:43.511Z,101559.25
2022-12-05T23:53:12.466Z,101558.31
2022-12-05T23:55:41.826Z,101559.19
2022-12-05T23:58:09.758Z,101567.28
